createdAt,value
2022-10-02T00:00:48.350Z,13.44
2022-10-02T00:01:48.488Z,13.46
2022-10-02T00:02:48.527Z,13.47
2022-10-02T00:03:48.616Z,13.48
2022-10-02T00:04:48.666Z,13.51
2022-10-02T00:05:48.727Z,13.53
2022-10-02T00:06:48.821Z,13.55
2022-10-02T00:07:48.893Z,13.55
2022-10-02T00:08:48.986Z,13.55
2022-10-02T00:09:49.051Z,13.57
2022-10-02T00:10:49.141Z,13.62
2022-10-02T00:11:49.209Z,13.62
2022-10-02T00:12:49.291Z,13.62
2022-10-02T00:13:49.350Z,13.62
2022-10-02T00:14:49.440Z,13.65
2022-10-02T00:15:49.504Z,13.66
2022-10-02T00:16:49.728Z,13.68
2022-10-02T00:17:49.703Z,13.66
2022-10-02T00:18:49.755Z,13.68
2022-10-02T00:19:49.812Z,13.68
2022-10-02T00:20:49.899Z,13.66
2022-10-02T00:21:49.969Z,13.66
2022-10-02T00:22:50.071Z,13.71
2022-10-02T00:23:50.133Z,13.71
2022-10-02T00:24:50.208Z,13.73
2022-10-02T00:25:50.264Z,13.71
2022-10-02T00:26:50.341Z,13.72
2022-10-02T00:27:50.462Z,13.72
2022-10-02T00:28:50.507Z,13.73
2022-10-02T00:29:50.604Z,13.73
2022-10-02T00:30:50.663Z,13.71
2022-10-02T00:31:50.814Z,13.71
2022-10-02T00:32:50.831Z,13.69
2022-10-02T00:33:50.917Z,13.68
2022-10-02T00:34:50.980Z,13.68
2022-10-02T00:35:51.069Z,13.66
2022-10-02T00:36:51.125Z,13.68
2022-10-02T00:37:51.225Z,13.68
2022-10-02T00:38:51.278Z,13.69
2022-10-02T00:39:51.383Z,13.72
2022-10-02T00:40:51.438Z,13.75
2022-10-02T00:41:51.520Z,13.75
2022-10-02T00:42:51.590Z,13.76
2022-10-02T00:43:51.679Z,13.80
2022-10-02T00:44:51.760Z,13.84
2022-10-02T00:45:51.919Z,13.86
2022-10-02T00:46:51.907Z,13.86
2022-10-02T00:47:52.006Z,13.86
2022-10-02T00:48:52.080Z,13.87
2022-10-02T00:49:52.166Z,13.87
2022-10-02T00:50:52.222Z,13.87
2022-10-02T00:51:52.307Z,13.87
2022-10-02T00:52:52.375Z,13.88
2022-10-02T00:53:52.440Z,13.87
2022-10-02T00:54:52.502Z,13.88
2022-10-02T00:55:52.567Z,13.87
2022-10-02T00:56:52.665Z,13.86
2022-10-02T00:57:52.736Z,13.84
2022-10-02T00:58:52.781Z,13.86
2022-10-02T00:59:52.865Z,13.84
2022-10-02T01:00:52.948Z,13.84
2022-10-02T01:01:53.064Z,13.86
2022-10-02T01:02:53.092Z,13.84
2022-10-02T01:03:53.156Z,13.84
2022-10-02T01:04:53.213Z,13.84
2022-10-02T01:05:53.305Z,13.84
2022-10-02T01:06:53.358Z,13.84
2022-10-02T01:07:53.457Z,13.86
2022-10-02T01:08:53.498Z,13.84
2022-10-02T01:09:53.579Z,13.84
2022-10-02T01:10:53.664Z,13.86
2022-10-02T01:11:53.743Z,13.87
2022-10-02T01:12:53.814Z,13.86
2022-10-02T01:13:53.905Z,13.86
2022-10-02T01:14:53.959Z,13.86
2022-10-02T01:15:54.044Z,13.84
2022-10-02T01:16:54.161Z,13.84
2022-10-02T01:17:54.295Z,13.84
2022-10-02T01:18:54.268Z,13.84
2022-10-02T01:19:54.364Z,13.83
2022-10-02T01:20:54.421Z,13.84
2022-10-02T01:21:54.501Z,13.83
2022-10-02T01:22:54.604Z,13.83
2022-10-02T01:23:54.642Z,13.81
2022-10-02T01:24:54.703Z,13.81
2022-10-02T01:25:54.807Z,13.83
2022-10-02T01:26:54.860Z,13.83
2022-10-02T01:27:55.165Z,13.83
2022-10-02T01:28:55.047Z,13.81
2022-10-02T01:29:55.130Z,13.81
2022-10-02T01:30:55.186Z,13.80
2022-10-02T01:31:55.349Z,13.81
2022-10-02T01:32:55.392Z,13.79
2022-10-02T01:33:55.452Z,13.79
2022-10-02T01:34:55.505Z,13.79
2022-10-02T01:35:55.591Z,13.79
2022-10-02T01:36:55.641Z,13.80
2022-10-02T01:37:55.834Z,13.80
2022-10-02T01:38:55.805Z,13.80
2022-10-02T01:39:55.890Z,13.80
2022-10-02T01:40:55.962Z,13.79
2022-10-02T01:41:56.044Z,13.80
2022-10-02T01:42:56.117Z,13.81
2022-10-02T01:43:56.196Z,13.81
2022-10-02T01:44:56.272Z,13.80
2022-10-02T01:45:56.378Z,13.83
2022-10-02T01:46:56.414Z,13.84
2022-10-02T01:47:56.519Z,13.83
2022-10-02T01:48:56.572Z,13.81
2022-10-02T01:49:56.654Z,13.81
2022-10-02T01:50:56.717Z,13.80
2022-10-02T01:51:56.821Z,13.83
2022-10-02T01:52:56.906Z,13.81
2022-10-02T01:53:56.971Z,13.81
2022-10-02T01:54:57.050Z,13.80
2022-10-02T01:55:57.146Z,13.80
2022-10-02T01:56:57.194Z,13.80
2022-10-02T01:57:57.377Z,13.81
2022-10-02T01:58:57.353Z,13.81
2022-10-02T01:59:57.453Z,13.81
2022-10-02T02:00:57.570Z,13.81
2022-10-02T02:01:57.695Z,13.81
2022-10-02T02:02:57.702Z,13.81
2022-10-02T02:03:57.770Z,13.81
2022-10-02T02:04:57.832Z,13.81
2022-10-02T02:05:57.917Z,13.83
2022-10-02T02:06:57.972Z,13.80
2022-10-02T02:07:58.071Z,13.81
2022-10-02T02:09:01.727Z,13.81
2022-10-02T02:09:58.184Z,13.81
2022-10-02T02:10:58.242Z,13.81
2022-10-02T02:11:58.326Z,13.80
2022-10-02T02:12:58.407Z,13.81
2022-10-02T02:13:58.454Z,13.81
2022-10-02T02:14:58.511Z,13.80
2022-10-02T02:15:58.661Z,13.80
2022-10-02T02:16:58.757Z,13.81
2022-10-02T02:17:58.779Z,13.80
2022-10-02T02:18:58.834Z,13.80
2022-10-02T02:19:58.941Z,13.79
2022-10-02T02:20:59.001Z,13.79
2022-10-02T02:21:59.081Z,13.76
2022-10-02T02:22:59.167Z,13.79
2022-10-02T02:23:59.232Z,13.76
2022-10-02T02:24:59.295Z,13.79
2022-10-02T02:25:59.390Z,13.79
2022-10-02T02:26:59.448Z,13.80
2022-10-02T02:27:59.624Z,13.80
2022-10-02T02:28:59.623Z,13.80
2022-10-02T02:29:59.706Z,13.81
2022-10-02T02:30:59.768Z,13.81
2022-10-02T02:31:59.897Z,13.81
2022-10-02T02:32:59.951Z,13.83
2022-10-02T02:34:00.034Z,13.83
2022-10-02T02:35:00.099Z,13.83
2022-10-02T02:36:00.198Z,13.84
2022-10-02T02:37:00.250Z,13.83
2022-10-02T02:38:00.378Z,13.83
2022-10-02T02:39:00.432Z,13.86
2022-10-02T02:40:00.512Z,13.86
2022-10-02T02:41:00.573Z,13.86
2022-10-02T02:42:00.656Z,13.86
2022-10-02T02:43:00.725Z,13.84
2022-10-02T02:44:00.797Z,13.84
2022-10-02T02:45:00.858Z,13.86
2022-10-02T02:46:00.965Z,13.86
2022-10-02T02:47:01.002Z,13.86
2022-10-02T02:48:01.108Z,13.86
2022-10-02T02:49:01.158Z,13.88
2022-10-02T02:50:01.260Z,13.87
2022-10-02T02:51:01.319Z,13.87
2022-10-02T02:52:01.403Z,13.87
2022-10-02T02:53:01.469Z,13.86
2022-10-02T02:54:01.539Z,13.86
2022-10-02T02:55:01.590Z,13.87
2022-10-02T02:56:01.674Z,13.87
2022-10-02T02:57:01.725Z,13.87
2022-10-02T02:58:01.909Z,13.86
2022-10-02T02:59:01.874Z,13.87
2022-10-02T03:00:01.931Z,13.90
2022-10-02T03:01:02.096Z,13.88
2022-10-02T03:02:02.135Z,13.88
2022-10-02T03:03:02.172Z,13.88
2022-10-02T03:04:02.222Z,13.88
2022-10-02T03:05:02.302Z,13.91
2022-10-02T03:06:02.357Z,13.91
2022-10-02T03:07:02.435Z,13.93
2022-10-02T03:08:02.617Z,13.94
2022-10-02T03:09:02.564Z,13.96
2022-10-02T03:10:02.620Z,13.94
2022-10-02T03:11:02.724Z,13.94
2022-10-02T03:12:02.797Z,13.94
2022-10-02T03:13:02.891Z,13.94
2022-10-02T03:14:02.942Z,13.96
2022-10-02T03:15:03.020Z,13.96
2022-10-02T03:16:03.145Z,13.98
2022-10-02T03:17:03.165Z,13.99
2022-10-02T03:18:03.245Z,14.02
2022-10-02T03:19:03.321Z,14.04
2022-10-02T03:20:03.376Z,14.05
2022-10-02T03:21:03.460Z,14.04
2022-10-02T03:22:03.508Z,14.04
2022-10-02T03:23:03.619Z,14.05
2022-10-02T03:24:03.662Z,14.05
2022-10-02T03:25:03.744Z,14.06
2022-10-02T03:26:03.803Z,14.06
2022-10-02T03:27:03.884Z,14.08
2022-10-02T03:28:04.028Z,14.08
2022-10-02T03:29:04.045Z,14.06
2022-10-02T03:30:04.083Z,14.04
2022-10-02T03:31:04.243Z,14.05
2022-10-02T03:32:04.243Z,14.02
2022-10-02T03:33:04.346Z,14.05
2022-10-02T03:34:04.380Z,14.04
2022-10-02T03:35:04.485Z,14.05
2022-10-02T03:36:04.541Z,14.06
2022-10-02T03:37:04.622Z,14.06
2022-10-02T03:38:04.707Z,14.08
2022-10-02T03:40:04.831Z,14.09
2022-10-02T03:41:04.895Z,14.09
2022-10-02T03:42:04.952Z,14.09
2022-10-02T03:43:05.056Z,14.13
2022-10-02T03:44:05.090Z,14.12
2022-10-02T03:45:05.169Z,14.12
2022-10-02T03:46:05.249Z,14.12
2022-10-02T03:47:05.326Z,14.13
2022-10-02T03:48:05.417Z,14.12
2022-10-02T03:49:05.479Z,14.13
2022-10-02T03:50:05.532Z,14.13
2022-10-02T03:51:05.632Z,14.12
2022-10-02T03:52:05.687Z,14.11
2022-10-02T03:53:05.783Z,14.11
2022-10-02T03:54:05.833Z,14.11
2022-10-02T03:55:05.918Z,14.11
2022-10-02T03:56:05.968Z,14.11
2022-10-02T03:57:06.048Z,14.12
2022-10-02T03:58:06.122Z,14.12
2022-10-02T03:59:06.202Z,14.11
2022-10-02T04:00:06.259Z,14.12
2022-10-02T04:01:06.340Z,14.12
2022-10-02T04:02:06.461Z,14.11
2022-10-02T04:03:06.485Z,14.09
2022-10-02T04:04:06.538Z,14.08
2022-10-02T04:05:06.638Z,14.06
2022-10-02T04:06:06.692Z,14.08
2022-10-02T04:07:06.774Z,14.06
2022-10-02T04:08:06.843Z,14.08
2022-10-02T04:09:06.923Z,14.08
2022-10-02T04:10:06.985Z,14.06
2022-10-02T04:11:07.061Z,14.05
2022-10-02T04:12:07.117Z,14.06
2022-10-02T04:13:07.207Z,14.06
2022-10-02T04:14:07.256Z,14.06
2022-10-02T04:15:07.333Z,14.06
2022-10-02T04:16:07.450Z,14.05
2022-10-02T04:17:07.480Z,14.06
2022-10-02T04:18:07.551Z,14.05
2022-10-02T04:19:07.613Z,14.04
2022-10-02T04:20:07.675Z,14.04
2022-10-02T04:21:07.754Z,14.04
2022-10-02T04:22:07.814Z,14.02
2022-10-02T04:23:07.934Z,14.01
2022-10-02T04:24:07.986Z,13.99
2022-10-02T04:25:08.085Z,13.99
2022-10-02T04:26:08.138Z,13.99
2022-10-02T04:27:08.221Z,14.01
2022-10-02T04:28:08.372Z,14.01
2022-10-02T04:29:08.367Z,13.99
2022-10-02T04:30:08.438Z,13.99
2022-10-02T04:31:08.589Z,14.01
2022-10-02T04:32:08.595Z,14.01
2022-10-02T04:33:08.695Z,13.99
2022-10-02T04:34:08.747Z,13.99
2022-10-02T04:35:08.826Z,13.98
2022-10-02T04:36:08.955Z,13.98
2022-10-02T04:37:08.959Z,13.98
2022-10-02T04:38:09.031Z,13.98
2022-10-02T04:39:09.093Z,13.96
2022-10-02T04:40:09.148Z,13.98
2022-10-02T04:41:09.228Z,13.99
2022-10-02T04:42:09.282Z,13.98
2022-10-02T04:43:09.384Z,13.98
2022-10-02T04:44:09.436Z,13.98
2022-10-02T04:45:09.536Z,13.96
2022-10-02T04:46:09.635Z,13.96
2022-10-02T04:47:09.691Z,13.98
2022-10-02T04:48:09.760Z,13.98
2022-10-02T04:49:09.842Z,14.01
2022-10-02T04:50:09.893Z,14.02
2022-10-02T04:51:09.974Z,14.02
2022-10-02T04:52:10.030Z,14.02
2022-10-02T04:53:10.132Z,14.04
2022-10-02T04:54:10.181Z,14.02
2022-10-02T04:55:10.262Z,14.02
2022-10-02T04:56:10.315Z,14.01
2022-10-02T04:57:10.400Z,14.02
2022-10-02T04:58:10.473Z,14.01
2022-10-02T04:59:10.553Z,14.01
2022-10-02T05:00:10.610Z,13.99
2022-10-02T05:01:10.824Z,13.99
2022-10-02T05:02:10.807Z,14.01
2022-10-02T05:03:10.885Z,13.99
2022-10-02T05:04:10.934Z,13.99
2022-10-02T05:05:11.014Z,13.99
2022-10-02T05:06:11.067Z,14.01
2022-10-02T05:07:11.170Z,13.98
2022-10-02T05:08:11.245Z,13.96
2022-10-02T05:09:11.321Z,13.94
2022-10-02T05:10:11.385Z,13.98
2022-10-02T05:11:11.455Z,13.96
2022-10-02T05:12:11.510Z,14.01
2022-10-02T05:13:11.673Z,14.01
2022-10-02T05:14:11.645Z,13.98
2022-10-02T05:15:11.723Z,13.98
2022-10-02T05:16:11.877Z,13.98
2022-10-02T05:17:11.870Z,13.96
2022-10-02T05:18:17.120Z,13.96
2022-10-02T05:19:12.028Z,13.98
2022-10-02T05:20:12.086Z,13.98
2022-10-02T05:21:12.166Z,13.98
2022-10-02T05:22:12.217Z,13.98
2022-10-02T05:23:12.314Z,13.98
2022-10-02T05:24:12.365Z,13.98
2022-10-02T05:25:12.453Z,13.98
2022-10-02T05:26:14.446Z,13.98
2022-10-02T05:27:12.579Z,13.98
2022-10-02T05:28:12.712Z,13.94
2022-10-02T05:29:12.724Z,13.96
2022-10-02T05:30:12.786Z,13.96
2022-10-02T05:31:12.877Z,13.98
2022-10-02T05:32:12.952Z,13.98
2022-10-02T05:33:13.061Z,13.99
2022-10-02T05:34:13.112Z,13.98
2022-10-02T05:35:13.190Z,13.98
2022-10-02T05:36:13.241Z,13.96
2022-10-02T05:37:13.315Z,13.94
2022-10-02T05:38:13.388Z,13.94
2022-10-02T05:39:13.469Z,13.93
2022-10-02T05:40:13.523Z,13.93
2022-10-02T05:41:13.602Z,13.93
2022-10-02T05:42:13.655Z,13.93
2022-10-02T05:43:13.764Z,13.93
2022-10-02T05:44:13.810Z,13.93
2022-10-02T05:45:13.911Z,13.93
2022-10-02T05:46:13.982Z,13.91
2022-10-02T05:47:14.056Z,13.93
2022-10-02T05:48:14.130Z,13.91
2022-10-02T05:49:14.210Z,13.90
2022-10-02T05:50:14.263Z,13.90
2022-10-02T05:51:14.346Z,13.90
2022-10-02T05:52:14.394Z,13.91
2022-10-02T05:53:14.503Z,13.90
2022-10-02T05:54:14.530Z,13.90
2022-10-02T05:55:14.616Z,13.91
2022-10-02T05:56:14.662Z,13.90
2022-10-02T05:57:14.762Z,13.90
2022-10-02T05:58:14.848Z,13.90
2022-10-02T05:59:14.892Z,13.90
2022-10-02T06:00:14.942Z,13.90
2022-10-02T06:01:15.089Z,13.88
2022-10-02T06:02:15.135Z,13.90
2022-10-02T06:03:15.166Z,13.90
2022-10-02T06:04:15.232Z,13.91
2022-10-02T06:05:15.313Z,13.93
2022-10-02T06:06:15.384Z,13.93
2022-10-02T06:07:15.462Z,13.93
2022-10-02T06:08:15.647Z,13.93
2022-10-02T06:09:19.782Z,13.91
2022-10-02T06:10:15.660Z,13.93
2022-10-02T06:11:15.739Z,13.93
2022-10-02T06:12:15.793Z,13.93
2022-10-02T06:13:15.893Z,13.93
2022-10-02T06:14:15.939Z,13.93
2022-10-02T06:15:16.020Z,13.94
2022-10-02T06:16:16.138Z,13.96
2022-10-02T06:17:16.172Z,13.93
2022-10-02T06:18:16.254Z,13.94
2022-10-02T06:19:16.309Z,13.94
2022-10-02T06:20:16.363Z,13.94
2022-10-02T06:21:16.441Z,13.96
2022-10-02T06:22:16.494Z,13.94
2022-10-02T06:23:16.646Z,13.94
2022-10-02T06:24:16.660Z,13.94
2022-10-02T06:25:16.742Z,13.96
2022-10-02T06:26:16.808Z,13.96
2022-10-02T06:27:16.894Z,13.96
2022-10-02T06:28:17.017Z,13.96
2022-10-02T06:29:19.839Z,13.96
2022-10-02T06:30:17.110Z,13.99
2022-10-02T06:31:17.218Z,14.01
2022-10-02T06:32:17.278Z,14.01
2022-10-02T06:33:17.368Z,14.04
2022-10-02T06:34:17.444Z,14.05
2022-10-02T06:35:17.525Z,14.04
2022-10-02T06:36:17.611Z,14.05
2022-10-02T06:37:17.691Z,14.05
2022-10-02T06:38:17.822Z,14.05
2022-10-02T06:39:17.877Z,14.06
2022-10-02T06:40:17.970Z,14.05
2022-10-02T06:41:18.044Z,14.06
2022-10-02T06:42:18.135Z,14.08
2022-10-02T06:43:18.391Z,14.06
2022-10-02T06:44:18.275Z,14.06
2022-10-02T06:45:18.370Z,14.08
2022-10-02T06:46:18.457Z,14.11
2022-10-02T06:47:18.540Z,14.11
2022-10-02T06:48:18.624Z,14.11
2022-10-02T06:49:18.667Z,14.13
2022-10-02T06:50:18.754Z,14.13
2022-10-02T06:51:18.838Z,14.17
2022-10-02T06:52:18.928Z,14.16
2022-10-02T06:53:19.044Z,14.16
2022-10-02T06:54:19.095Z,14.17
2022-10-02T06:55:19.196Z,14.16
2022-10-02T06:56:19.245Z,14.16
2022-10-02T06:57:19.342Z,14.16
2022-10-02T06:58:19.432Z,14.16
2022-10-02T06:59:19.501Z,14.16
2022-10-02T07:00:19.593Z,14.19
2022-10-02T07:01:19.746Z,14.20
2022-10-02T07:02:19.782Z,14.21
2022-10-02T07:03:19.856Z,14.21
2022-10-02T07:04:19.908Z,14.23
2022-10-02T07:05:19.987Z,14.23
2022-10-02T07:06:20.061Z,14.24
2022-10-02T07:07:20.139Z,14.26
2022-10-02T07:08:20.248Z,14.27
2022-10-02T07:09:20.316Z,14.26
2022-10-02T07:10:20.364Z,14.29
2022-10-02T07:11:20.458Z,14.29
2022-10-02T07:12:20.550Z,14.29
2022-10-02T07:13:20.652Z,14.30
2022-10-02T07:14:20.710Z,14.31
2022-10-02T07:15:20.802Z,14.34
2022-10-02T07:16:20.921Z,14.34
2022-10-02T07:17:22.396Z,14.35
2022-10-02T07:18:21.091Z,14.36
2022-10-02T07:19:21.135Z,14.38
2022-10-02T07:20:21.247Z,14.41
2022-10-02T07:21:21.337Z,14.42
2022-10-02T07:22:43.323Z,14.42
2022-10-02T07:23:21.522Z,14.46
2022-10-02T07:24:21.585Z,14.48
2022-10-02T07:25:21.638Z,14.49
2022-10-02T07:26:21.722Z,14.52
2022-10-02T07:27:21.771Z,14.54
2022-10-02T07:28:22.045Z,14.54
2022-10-02T07:29:21.931Z,14.56
2022-10-02T07:30:22.034Z,14.59
2022-10-02T07:31:22.161Z,14.59
2022-10-02T07:32:22.147Z,14.60
2022-10-02T07:33:25.333Z,14.63
2022-10-02T07:34:22.337Z,14.63
2022-10-02T07:35:22.388Z,14.64
2022-10-02T07:36:22.478Z,14.66
2022-10-02T07:37:22.524Z,14.66
2022-10-02T07:38:22.629Z,14.69
2022-10-02T07:39:22.680Z,14.71
2022-10-02T07:40:22.764Z,14.74
2022-10-02T07:41:22.813Z,14.79
2022-10-02T07:42:22.898Z,14.82
2022-10-02T07:43:23.049Z,14.86
2022-10-02T07:44:23.025Z,14.87
2022-10-02T07:45:23.152Z,14.94
2022-10-02T07:46:23.208Z,14.94
2022-10-02T07:47:23.298Z,14.97
2022-10-02T07:48:23.457Z,15.00
2022-10-02T07:49:23.464Z,15.03
2022-10-02T07:50:23.545Z,15.04
2022-10-02T07:51:23.609Z,15.05
2022-10-02T07:52:23.690Z,15.05
2022-10-02T07:53:23.804Z,15.07
2022-10-02T07:54:23.881Z,15.07
2022-10-02T07:55:23.936Z,15.04
2022-10-02T07:56:24.018Z,15.04
2022-10-02T07:57:24.067Z,15.04
2022-10-02T07:58:24.182Z,15.03
2022-10-02T07:59:24.224Z,15.03
2022-10-02T08:00:24.306Z,15.03
2022-10-02T08:01:24.362Z,15.01
2022-10-02T08:02:24.482Z,15.01
2022-10-02T08:03:24.577Z,15.00
2022-10-02T08:04:24.603Z,15.00
2022-10-02T08:05:24.693Z,15.00
2022-10-02T08:06:24.783Z,14.98
2022-10-02T08:07:24.840Z,15.00
2022-10-02T08:08:25.005Z,14.97
2022-10-02T08:09:25.008Z,15.00
2022-10-02T08:10:25.089Z,15.00
2022-10-02T08:11:25.167Z,15.01
2022-10-02T08:12:25.254Z,15.04
2022-10-02T08:13:25.325Z,15.05
2022-10-02T08:14:25.402Z,15.07
2022-10-02T08:15:25.453Z,15.11
2022-10-02T08:16:25.583Z,15.13
2022-10-02T08:17:25.596Z,15.18
2022-10-02T08:18:40.301Z,15.18
2022-10-02T08:19:25.753Z,15.22
2022-10-02T08:20:29.244Z,15.25
2022-10-02T08:21:25.906Z,15.28
2022-10-02T08:22:25.986Z,15.30
2022-10-02T08:23:26.103Z,15.31
2022-10-02T08:24:26.179Z,15.33
2022-10-02T08:25:26.230Z,15.33
2022-10-02T08:26:26.308Z,15.33
2022-10-02T08:27:26.399Z,15.35
2022-10-02T08:28:26.531Z,15.34
2022-10-02T08:29:26.549Z,15.35
2022-10-02T08:30:26.624Z,15.35
2022-10-02T08:31:26.766Z,15.34
2022-10-02T08:32:28.459Z,15.33
2022-10-02T08:33:26.907Z,15.33
2022-10-02T08:34:26.977Z,15.33
2022-10-02T08:35:27.067Z,15.31
2022-10-02T08:36:27.150Z,15.30
2022-10-02T08:37:27.220Z,15.28
2022-10-02T08:38:27.329Z,15.28
2022-10-02T08:39:27.355Z,15.27
2022-10-02T08:40:27.458Z,15.27
2022-10-02T08:41:27.509Z,15.27
2022-10-02T08:42:27.589Z,15.27
2022-10-02T08:43:27.855Z,15.27
2022-10-02T08:44:27.771Z,15.30
2022-10-02T08:45:27.895Z,15.28
2022-10-02T08:46:27.958Z,15.28
2022-10-02T08:47:27.962Z,15.25
2022-10-02T08:48:28.098Z,15.22
2022-10-02T08:49:28.105Z,15.16
2022-10-02T08:50:28.185Z,15.13
2022-10-02T08:51:28.275Z,15.13
2022-10-02T08:52:28.355Z,15.12
2022-10-02T08:53:28.419Z,15.12
2022-10-02T08:54:28.500Z,15.12
2022-10-02T08:55:28.576Z,15.07
2022-10-02T08:56:28.657Z,15.05
2022-10-02T08:57:28.726Z,15.04
2022-10-02T08:58:28.863Z,15.07
2022-10-02T08:59:28.872Z,15.09
2022-10-02T09:00:28.955Z,15.09
2022-10-02T09:01:29.014Z,15.12
2022-10-02T09:02:29.185Z,15.16
2022-10-02T09:03:29.180Z,15.18
2022-10-02T09:04:29.248Z,15.18
2022-10-02T09:05:29.322Z,15.19
2022-10-02T09:06:29.417Z,15.20
2022-10-02T09:07:29.486Z,15.23
2022-10-02T09:08:30.089Z,15.25
2022-10-02T09:09:29.645Z,15.31
2022-10-02T09:10:29.724Z,15.33
2022-10-02T09:11:29.816Z,15.34
2022-10-02T09:12:29.887Z,15.37
2022-10-02T09:13:29.936Z,15.38
2022-10-02T09:14:30.092Z,15.37
2022-10-02T09:15:30.088Z,15.35
2022-10-02T09:16:30.257Z,15.37
2022-10-02T09:17:30.241Z,15.35
2022-10-02T09:18:30.323Z,15.37
2022-10-02T09:19:30.504Z,15.35
2022-10-02T09:20:30.466Z,15.37
2022-10-02T09:21:30.518Z,15.38
2022-10-02T09:22:30.600Z,15.41
2022-10-02T09:23:30.666Z,15.43
2022-10-02T09:24:30.772Z,15.48
2022-10-02T09:25:30.809Z,15.51
2022-10-02T09:26:30.890Z,15.53
2022-10-02T09:27:30.947Z,15.53
2022-10-02T09:28:31.096Z,15.56
2022-10-02T09:29:31.107Z,15.56
2022-10-02T09:30:31.177Z,15.58
2022-10-02T09:31:31.320Z,15.60
2022-10-02T09:32:31.338Z,15.60
2022-10-02T09:33:31.419Z,15.60
2022-10-02T09:34:31.515Z,15.64
2022-10-02T09:35:31.565Z,15.67
2022-10-02T09:36:31.654Z,15.71
2022-10-02T09:37:31.705Z,15.73
2022-10-02T09:38:33.697Z,15.73
2022-10-02T09:39:31.969Z,15.74
2022-10-02T09:40:31.924Z,15.78
2022-10-02T09:41:32.010Z,15.81
2022-10-02T09:42:32.107Z,15.88
2022-10-02T09:43:32.159Z,15.92
2022-10-02T09:44:32.281Z,15.93
2022-10-02T09:45:32.374Z,15.98
2022-10-02T09:46:32.427Z,16.04
2022-10-02T09:47:32.508Z,16.10
2022-10-02T09:48:32.581Z,16.16
2022-10-02T09:49:32.715Z,16.22
2022-10-02T09:50:32.753Z,16.29
2022-10-02T09:51:32.840Z,16.34
2022-10-02T09:52:32.911Z,16.37
2022-10-02T09:53:32.981Z,16.44
2022-10-02T09:54:33.074Z,16.52
2022-10-02T09:55:33.116Z,16.54
2022-10-02T09:56:33.517Z,16.52
2022-10-02T09:57:33.260Z,16.59
2022-10-02T09:58:33.332Z,16.60
2022-10-02T09:59:33.437Z,16.60
2022-10-02T10:00:33.513Z,16.60
2022-10-02T10:01:33.611Z,16.60
2022-10-02T10:02:33.701Z,16.57
2022-10-02T10:03:33.736Z,16.52
2022-10-02T10:04:54.092Z,16.50
2022-10-02T10:05:33.878Z,16.44
2022-10-02T10:06:34.300Z,16.40
2022-10-02T10:07:34.046Z,16.34
2022-10-02T10:08:34.130Z,16.34
2022-10-02T10:09:34.214Z,16.32
2022-10-02T10:10:34.306Z,16.23
2022-10-02T10:11:34.741Z,16.18
2022-10-02T10:12:34.439Z,16.17
2022-10-02T10:13:34.506Z,16.22
2022-10-02T10:14:34.671Z,16.25
2022-10-02T10:15:34.638Z,16.30
2022-10-02T10:16:34.762Z,16.33
2022-10-02T10:17:34.781Z,16.36
2022-10-02T10:18:34.860Z,16.34
2022-10-02T10:19:34.942Z,16.30
2022-10-02T10:20:35.017Z,16.27
2022-10-02T10:21:35.462Z,16.25
2022-10-02T10:22:35.167Z,16.27
2022-10-02T10:23:35.238Z,16.26
2022-10-02T10:24:35.329Z,16.27
2022-10-02T10:25:35.373Z,16.25
2022-10-02T10:26:35.464Z,16.30
2022-10-02T10:27:35.548Z,16.40
2022-10-02T10:28:35.637Z,16.52
2022-10-02T10:29:35.760Z,16.60
2022-10-02T10:30:35.791Z,16.70
2022-10-02T10:31:36.298Z,16.72
2022-10-02T10:32:35.944Z,16.78
2022-10-02T10:33:36.027Z,16.81
2022-10-02T10:34:36.118Z,16.87
2022-10-02T10:35:36.172Z,16.90
2022-10-02T10:36:36.263Z,16.95
2022-10-02T10:37:36.334Z,16.95
2022-10-02T10:38:36.420Z,16.91
2022-10-02T10:39:36.568Z,16.88
2022-10-02T10:40:36.597Z,16.88
2022-10-02T10:41:36.920Z,16.90
2022-10-02T10:42:56.112Z,16.88
2022-10-02T10:43:36.853Z,16.85
2022-10-02T10:44:36.947Z,16.85
2022-10-02T10:45:37.049Z,16.85
2022-10-02T10:46:37.075Z,16.87
2022-10-02T10:47:37.128Z,16.88
2022-10-02T10:48:37.219Z,16.87
2022-10-02T10:49:37.311Z,16.87
2022-10-02T10:50:37.380Z,16.87
2022-10-02T10:51:37.853Z,16.82
2022-10-02T10:52:37.521Z,16.80
2022-10-02T10:53:37.610Z,16.78
2022-10-02T10:54:37.711Z,16.72
2022-10-02T10:55:37.763Z,16.70
2022-10-02T10:56:37.853Z,16.67
2022-10-02T10:57:37.903Z,16.66
2022-10-02T10:58:37.995Z,16.59
2022-10-02T10:59:38.178Z,16.51
2022-10-02T11:00:38.149Z,16.45
2022-10-02T11:01:38.553Z,16.42
2022-10-02T11:02:38.331Z,16.40
2022-10-02T11:03:38.396Z,16.36
2022-10-02T11:04:38.526Z,16.33
2022-10-02T11:05:38.538Z,16.33
2022-10-02T11:06:41.792Z,16.33
2022-10-02T11:07:38.701Z,16.34
2022-10-02T11:08:38.780Z,16.33
2022-10-02T11:09:38.898Z,16.36
2022-10-02T11:10:38.966Z,16.36
2022-10-02T11:11:39.693Z,16.34
2022-10-02T11:12:39.149Z,16.37
2022-10-02T11:13:39.185Z,16.41
2022-10-02T11:14:39.317Z,16.40
2022-10-02T11:15:39.331Z,16.37
2022-10-02T11:16:39.524Z,16.32
2022-10-02T11:17:39.463Z,16.32
2022-10-02T11:18:39.543Z,16.30
2022-10-02T11:19:39.624Z,16.34
2022-10-02T11:20:39.677Z,16.40
2022-10-02T11:21:40.089Z,16.41
2022-10-02T11:22:39.854Z,16.48
2022-10-02T11:23:39.948Z,16.54
2022-10-02T11:24:40.059Z,16.57
2022-10-02T11:25:40.097Z,16.57
2022-10-02T11:26:40.188Z,16.60
2022-10-02T11:27:40.280Z,16.60
2022-10-02T11:28:40.359Z,16.57
2022-10-02T11:29:40.455Z,16.50
2022-10-02T11:30:41.819Z,16.47
2022-10-02T11:31:41.183Z,16.42
2022-10-02T11:32:40.681Z,16.41
2022-10-02T11:33:40.764Z,16.41
2022-10-02T11:34:40.831Z,16.37
2022-10-02T11:35:40.904Z,16.37
2022-10-02T11:36:40.995Z,16.36
2022-10-02T11:37:41.077Z,16.34
2022-10-02T11:38:41.130Z,16.33
2022-10-02T11:39:41.345Z,16.30
2022-10-02T11:40:41.273Z,16.30
2022-10-02T11:41:41.353Z,16.32
2022-10-02T11:42:41.406Z,16.33
2022-10-02T11:43:44.067Z,16.30
2022-10-02T11:44:41.570Z,16.32
2022-10-02T11:45:41.749Z,16.33
2022-10-02T11:46:41.746Z,16.37
2022-10-02T11:47:41.819Z,16.42
2022-10-02T11:48:41.904Z,16.47
2022-10-02T11:49:42.014Z,16.54
2022-10-02T11:50:42.038Z,16.57
2022-10-02T11:51:42.116Z,16.63
2022-10-02T11:52:47.355Z,16.63
2022-10-02T11:53:42.302Z,16.65
2022-10-02T11:54:42.392Z,16.66
2022-10-02T11:55:42.470Z,16.70
2022-10-02T11:56:42.563Z,16.73
2022-10-02T11:57:42.652Z,16.73
2022-10-02T11:58:42.746Z,16.70
2022-10-02T11:59:44.904Z,16.73
2022-10-02T12:00:42.884Z,16.72
2022-10-02T12:01:42.965Z,16.70
2022-10-02T12:02:43.210Z,16.70
2022-10-02T12:03:43.126Z,16.67
2022-10-02T12:04:43.175Z,16.55
2022-10-02T12:05:43.281Z,16.50
2022-10-02T12:06:45.452Z,16.51
2022-10-02T12:07:43.419Z,16.51
2022-10-02T12:08:43.507Z,16.51
2022-10-02T12:09:43.597Z,16.47
2022-10-02T12:10:43.711Z,16.44
2022-10-02T12:11:43.770Z,16.41
2022-10-02T12:12:43.821Z,16.33
2022-10-02T12:13:43.903Z,16.29
2022-10-02T12:14:43.959Z,16.25
2022-10-02T12:15:44.082Z,16.25
2022-10-02T12:16:44.136Z,16.22
2022-10-02T12:17:44.220Z,16.16
2022-10-02T12:18:44.312Z,16.13
2022-10-02T12:19:44.402Z,16.11
2022-10-02T12:20:44.492Z,16.13
2022-10-02T12:21:44.563Z,16.14
2022-10-02T12:22:44.617Z,16.18
2022-10-02T12:23:44.700Z,16.23
2022-10-02T12:24:44.754Z,16.27
2022-10-02T12:25:44.874Z,16.37
2022-10-02T12:26:44.914Z,16.44
2022-10-02T12:27:44.963Z,16.52
2022-10-02T12:28:45.059Z,16.57
2022-10-02T12:29:45.144Z,16.65
2022-10-02T12:30:45.263Z,16.66
2022-10-02T12:31:45.390Z,16.72
2022-10-02T12:32:45.500Z,16.81
2022-10-02T12:33:45.496Z,16.88
2022-10-02T12:34:45.604Z,16.99
2022-10-02T12:35:45.714Z,17.02
2022-10-02T12:36:45.787Z,17.06
2022-10-02T12:37:45.875Z,17.15
2022-10-02T12:38:45.946Z,17.21
2022-10-02T12:39:46.026Z,17.25
2022-10-02T12:40:46.152Z,17.28
2022-10-02T12:41:46.199Z,17.35
2022-10-02T12:42:46.272Z,17.36
2022-10-02T12:43:46.363Z,17.36
2022-10-02T12:44:46.454Z,17.38
2022-10-02T12:45:46.607Z,17.45
2022-10-02T12:46:46.634Z,17.54
2022-10-02T12:47:46.707Z,17.60
2022-10-02T12:48:46.819Z,17.66
2022-10-02T12:49:46.904Z,17.65
2022-10-02T12:50:47.028Z,17.66
2022-10-02T12:51:47.069Z,17.63
2022-10-02T12:52:47.147Z,17.65
2022-10-02T12:53:47.234Z,17.70
2022-10-02T12:54:47.308Z,17.71